Time,TemperatureF,DewpointF,PressureIn,WindDirection,WindDirectionDegrees,WindSpeedMPH,WindSpeedGustMPH,Humidity,HourlyPrecipIn,Conditions,Clouds,dailyrainin,SoftwareType,DateUTC
2013-01-20 00:05:00,43.3,30.0,29.91,ESE,103,1.0,5.0,59,0.00,,,0.00,weatherlink.com 1.10,2013-01-20 05:05:00,
2013-01-20 00:20:00,42.8,30.0,29.90,SSW,193,1.0,7.0,60,0.00,,,0.00,weatherlink.com 1.10,2013-01-20 05:20:00,
2013-01-20 00:35:00,42.2,29.0,29.89,South,191,3.0,4.0,61,0.00,,,0.00,weatherlink.com 1.10,2013-01-20 05:35:00,
2013-01-20 00:50:00,41.7,29.0,29.88,SSE,165,1.0,8.0,62,0.00,,,0.00,weatherlink.com 1.10,2013-01-20 05:50:00,
2013-01-20 01:05:00,41.3,29.0,29.86,South,173,1.0,6.0,63,0.00,,,0.00,weatherlink.com 1.10,2013-01-20 06:05:00,
2013-01-20 01:20:00,41.0,30.0,29.86,SSE,155,3.0,6.0,64,0.00,,,0.00,weatherlink.com 1.10,2013-01-20 06:20:00,
2013-01-20 01:35:00,40.8,30.0,29.86,South,171,2.0,5.0,65,0.00,,,0.00,weatherlink.com 1.10,2013-01-20 06:35:00,
2013-01-20 01:50:00,40.6,30.0,29.86,SSE,160,0.0,6.0,65,0.00,,,0.00,weatherlink.com 1.10,2013-01-20 06:50:00,
2013-01-20 02:05:00,40.5,30.0,29.85,SSE,159,2.0,5.0,66,0.00,,,0.00,weatherlink.com 1.10,2013-01-20 07:05:00,
2013-01-20 02:20:00,40.2,30.0,29.85,South,173,2.0,5.0,66,0.00,,,0.00,weatherlink.com 1.10,2013-01-20 07:20:00,
2013-01-20 02:35:00,39.9,30.0,29.85,South,181,1.0,4.0,67,0.00,,,0.00,weatherlink.com 1.10,2013-01-20 07:35:00,
2013-01-20 02:50:00,39.5,30.0,29.84,SSE,153,3.0,4.0,68,0.00,,,0.00,weatherlink.com 1.10,2013-01-20 07:50:00,
2013-01-20 03:05:00,39.2,30.0,29.83,SSE,152,1.0,4.0,69,0.00,,,0.00,weatherlink.com 1.10,2013-01-20 08:05:00,
2013-01-20 03:20:00,38.9,30.0,29.83,SSW,203,1.0,2.0,70,0.00,,,0.00,weatherlink.com 1.10,2013-01-20 08:20:00,
2013-01-20 03:35:00,38.7,30.0,29.83,SSW,197,1.0,3.0,70,0.00,,,0.00,weatherlink.com 1.10,2013-01-20 08:35:00,
2013-01-20 03:50:00,38.6,30.0,29.82,South,190,1.0,3.0,71,0.00,,,0.00,weatherlink.com 1.10,2013-01-20 08:50:00,
2013-01-20 04:06:00,38.5,30.0,29.81,SSE,162,2.0,3.0,71,0.00,,,0.00,weatherlink.com 1.10,2013-01-20 09:06:00,
2013-01-20 04:21:00,38.4,30.0,29.80,South,169,0.0,2.0,71,0.00,,,0.00,weatherlink.com 1.10,2013-01-20 09:21:00,
2013-01-20 04:36:00,38.0,30.0,29.79,South,180,0.0,2.0,73,0.00,,,0.00,weatherlink.com 1.10,2013-01-20 09:36:00,
2013-01-20 04:51:00,38.5,30.0,29.78,SSE,167,1.0,3.0,72,0.00,,,0.00,weatherlink.com 1.10,2013-01-20 09:51:00,
2013-01-20 05:06:00,38.6,30.0,29.77,South,184,0.0,3.0,71,0.00,,,0.00,weatherlink.com 1.10,2013-01-20 10:06:00,
2013-01-20 05:21:00,38.3,30.0,29.77,SSE,155,0.0,2.0,72,0.00,,,0.00,weatherlink.com 1.10,2013-01-20 10:21:00,
2013-01-20 05:36:00,37.9,30.0,29.76,SSE,160,0.0,2.0,73,0.00,,,0.00,weatherlink.com 1.10,2013-01-20 10:36:00,
2013-01-20 05:51:00,37.6,30.0,29.76,SSE,160,0.0,0.0,74,0.00,,,0.00,weatherlink.com 1.10,2013-01-20 10:51:00,
2013-01-20 06:21:00,38.2,30.0,29.75,South,173,0.0,1.0,73,0.00,,,0.00,weatherlink.com 1.10,2013-01-20 11:21:00,
2013-01-20 06:36:00,38.1,30.0,29.75,South,170,1.0,2.0,73,0.00,,,0.00,weatherlink.com 1.10,2013-01-20 11:36:00,
2013-01-20 06:51:00,38.0,30.0,29.74,South,176,1.0,2.0,73,0.00,,,0.00,weatherlink.com 1.10,2013-01-20 11:51:00,
2013-01-20 07:06:00,37.9,30.0,29.74,SSE,154,0.0,2.0,73,0.00,,,0.00,weatherlink.com 1.10,2013-01-20 12:06:00,
2013-01-20 07:21:00,38.3,30.0,29.74,South,179,2.0,2.0,72,0.00,,,0.00,weatherlink.com 1.10,2013-01-20 12:21:00,
2013-01-20 07:36:00,38.7,30.0,29.73,South,173,0.0,5.0,70,0.00,,,0.00,weatherlink.com 1.10,2013-01-20 12:36:00,
2013-01-20 07:51:00,39.2,30.0,29.73,South,177,4.0,4.0,69,0.00,,,0.00,weatherlink.com 1.10,2013-01-20 12:51:00,
2013-01-20 08:06:00,40.1,30.0,29.73,South,169,0.0,8.0,67,0.00,,,0.00,weatherlink.com 1.10,2013-01-20 13:06:00,
2013-01-20 08:36:00,41.9,30.0,29.74,SE,143,2.0,8.0,64,0.00,,,0.00,weatherlink.com 1.10,2013-01-20 13:36:00,
2013-01-20 08:51:00,43.2,30.0,29.74,South,169,1.0,9.0,61,0.00,,,0.00,weatherlink.com 1.10,2013-01-20 13:51:00,
2013-01-20 09:06:00,44.3,31.0,29.75,SSE,155,3.0,7.0,59,0.00,,,0.00,weatherlink.com 1.10,2013-01-20 14:06:00,
2013-01-20 09:21:00,45.5,30.0,29.75,SE,139,5.0,9.0,56,0.00,,,0.00,weatherlink.com 1.10,2013-01-20 14:21:00,
2013-01-20 09:36:00,46.7,30.0,29.74,SE,139,1.0,7.0,53,0.00,,,0.00,weatherlink.com 1.10,2013-01-20 14:36:00,
2013-01-20 09:51:00,48.0,30.0,29.74,South,181,7.0,10.0,51,0.00,,,0.00,weatherlink.com 1.10,2013-01-20 14:51:00,
2013-01-20 10:06:00,49.9,31.0,29.74,SSW,193,5.0,10.0,48,0.00,,,0.00,weatherlink.com 1.10,2013-01-20 15:06:00,
2013-01-20 10:21:00,51.0,31.0,29.74,SSE,153,5.0,10.0,46,0.00,,,0.00,weatherlink.com 1.10,2013-01-20 15:21:00,
2013-01-20 10:36:00,51.6,31.0,29.73,SSE,147,3.0,7.0,46,0.00,,,0.00,weatherlink.com 1.10,2013-01-20 15:36:00,
2013-01-20 10:52:00,53.2,31.0,29.73,SE,136,5.0,13.0,43,0.00,,,0.00,weatherlink.com 1.10,2013-01-20 15:52:00,
2013-01-20 11:07:00,53.6,31.0,29.72,ESE,112,3.0,9.0,42,0.00,,,0.00,weatherlink.com 1.10,2013-01-20 16:07:00,
2013-01-20 11:22:00,53.4,31.0,29.71,SE,138,4.0,11.0,42,0.00,,,0.00,weatherlink.com 1.10,2013-01-20 16:22:00,
2013-01-20 11:37:00,53.0,31.0,29.71,SSW,210,4.0,14.0,43,0.00,,,0.00,weatherlink.com 1.10,2013-01-20 16:37:00,
2013-01-20 11:52:00,53.0,30.0,29.69,SSE,151,5.0,14.0,42,0.00,,,0.00,weatherlink.com 1.10,2013-01-20 16:52:00,
2013-01-20 12:07:00,54.2,31.0,29.69,ESE,113,3.0,11.0,42,0.00,,,0.00,weatherlink.com 1.10,2013-01-20 17:07:00,
2013-01-20 12:22:00,55.6,30.0,29.70,NNE,12,8.0,15.0,38,0.00,,,0.00,weatherlink.com 1.10,2013-01-20 17:22:00,
2013-01-20 12:37:00,54.9,28.0,29.69,NE,36,11.0,21.0,36,0.00,,,0.00,weatherlink.com 1.10,2013-01-20 17:37:00,
2013-01-20 12:52:00,55.4,28.0,29.69,ENE,65,5.0,11.0,35,0.00,,,0.00,weatherlink.com 1.10,2013-01-20 17:52:00,
2013-01-20 13:07:00,55.2,28.0,29.69,SE,127,3.0,9.0,35,0.00,,,0.00,weatherlink.com 1.10,2013-01-20 18:07:00,
2013-01-20 13:22:00,54.9,28.0,29.70,NE,49,4.0,8.0,35,0.00,,,0.00,weatherlink.com 1.10,2013-01-20 18:22:00,
2013-01-20 13:38:00,53.7,26.0,29.70,East,87,13.0,14.0,35,0.00,,,0.00,weatherlink.com 1.10,2013-01-20 18:38:00,
2013-01-20 13:52:00,54.2,25.0,29.70,ESE,107,9.0,9.0,33,0.00,,,0.00,weatherlink.com 1.10,2013-01-20 18:52:00,
2013-01-20 14:07:00,54.1,26.0,29.70,NNW,345,5.0,15.0,34,0.00,,,0.00,weatherlink.com 1.10,2013-01-20 19:07:00,
2013-01-20 14:22:00,53.7,25.0,29.71,NNW,342,6.0,16.0,33,0.00,,,0.00,weatherlink.com 1.10,2013-01-20 19:22:00,
2013-01-20 14:37:00,53.3,22.0,29.72,NNW,348,3.0,12.0,29,0.00,,,0.00,weatherlink.com 1.10,2013-01-20 19:37:00,
2013-01-20 14:52:00,52.6,18.0,29.74,North,360,5.0,14.0,25,0.00,,,0.00,weatherlink.com 1.10,2013-01-20 19:52:00,
2013-01-20 15:07:00,51.6,17.0,29.75,NE,42,5.0,16.0,25,0.00,,,0.00,weatherlink.com 1.10,2013-01-20 20:07:00,
2013-01-20 15:22:00,51.2,15.0,29.76,NNE,12,3.0,14.0,24,0.00,,,0.00,weatherlink.com 1.10,2013-01-20 20:22:00,
2013-01-20 15:37:00,50.7,15.0,29.77,NNE,18,7.0,16.0,24,0.00,,,0.00,weatherlink.com 1.10,2013-01-20 20:37:00,
2013-01-20 15:52:00,50.3,15.0,29.77,NNE,19,6.0,15.0,24,0.00,,,0.00,weatherlink.com 1.10,2013-01-20 20:52:00,
2013-01-20 16:07:00,49.7,15.0,29.78,SE,129,5.0,19.0,25,0.00,,,0.00,weatherlink.com 1.10,2013-01-20 21:07:00,
2013-01-20 16:22:00,49.2,15.0,29.80,North,358,9.0,20.0,26,0.00,,,0.00,weatherlink.com 1.10,2013-01-20 21:22:00,
2013-01-20 16:37:00,48.3,15.0,29.81,NNW,339,10.0,14.0,26,0.00,,,0.00,weatherlink.com 1.10,2013-01-20 21:37:00,
2013-01-20 16:52:00,47.6,15.0,29.82,NE,46,1.0,12.0,27,0.00,,,0.00,weatherlink.com 1.10,2013-01-20 21:52:00,
2013-01-20 17:07:00,46.6,11.0,29.84,NNE,33,7.0,17.0,24,0.00,,,0.00,weatherlink.com 1.10,2013-01-20 22:07:00,
2013-01-20 17:22:00,45.8,12.0,29.84,ENE,71,1.0,13.0,25,0.00,,,0.00,weatherlink.com 1.10,2013-01-20 22:22:00,
2013-01-20 17:37:00,45.1,14.0,29.86,NNE,17,3.0,13.0,28,0.00,,,0.00,weatherlink.com 1.10,2013-01-20 22:37:00,
2013-01-20 17:52:00,44.3,14.0,29.87,NE,37,4.0,13.0,29,0.00,,,0.00,weatherlink.com 1.10,2013-01-20 22:52:00,
2013-01-20 18:07:00,43.7,15.0,29.88,NW,322,2.0,11.0,31,0.00,,,0.00,weatherlink.com 1.10,2013-01-20 23:07:00,
2013-01-20 18:22:00,43.1,15.0,29.89,NE,51,3.0,10.0,32,0.00,,,0.00,weatherlink.com 1.10,2013-01-20 23:22:00,
2013-01-20 18:37:00,42.3,16.0,29.90,NW,316,2.0,8.0,34,0.00,,,0.00,weatherlink.com 1.10,2013-01-20 23:37:00,
2013-01-20 18:52:00,41.6,18.0,29.90,NNW,335,7.0,10.0,38,0.00,,,0.00,weatherlink.com 1.10,2013-01-20 23:52:00,
2013-01-20 19:07:00,40.4,18.0,29.91,NE,51,3.0,10.0,41,0.00,,,0.00,weatherlink.com 1.10,2013-01-21 00:07:00,
2013-01-20 19:23:00,39.3,17.0,29.93,NNW,345,5.0,10.0,41,0.00,,,0.00,weatherlink.com 1.10,2013-01-21 00:23:00,
2013-01-20 19:38:00,38.5,17.0,29.94,NNE,12,1.0,9.0,42,0.00,,,0.00,weatherlink.com 1.10,2013-01-21 00:38:00,
2013-01-20 19:53:00,38.0,17.0,29.95,NNE,21,8.0,9.0,42,0.00,,,0.00,weatherlink.com 1.10,2013-01-21 00:53:00,
2013-01-20 20:08:00,37.4,17.0,29.95,NE,41,4.0,8.0,43,0.00,,,0.00,weatherlink.com 1.10,2013-01-21 01:08:00,
2013-01-20 20:23:00,36.9,16.0,29.96,NNW,328,3.0,8.0,42,0.00,,,0.00,weatherlink.com 1.10,2013-01-21 01:23:00,
2013-01-20 20:38:00,36.4,15.0,29.97,NNE,20,6.0,8.0,42,0.00,,,0.00,weatherlink.com 1.10,2013-01-21 01:38:00,
2013-01-20 20:53:00,36.0,15.0,29.98,North,6,4.0,13.0,42,0.00,,,0.00,weatherlink.com 1.10,2013-01-21 01:53:00,
2013-01-20 21:08:00,35.2,14.0,29.98,NNW,340,4.0,13.0,42,0.00,,,0.00,weatherlink.com 1.10,2013-01-21 02:08:00,
2013-01-20 21:23:00,34.6,14.0,29.98,NNE,12,3.0,9.0,43,0.00,,,0.00,weatherlink.com 1.10,2013-01-21 02:23:00,
2013-01-20 21:38:00,33.9,13.0,29.99,North,1,3.0,7.0,43,0.00,,,0.00,weatherlink.com 1.10,2013-01-21 02:38:00,
2013-01-20 21:53:00,33.5,14.0,30.00,NNW,328,3.0,7.0,44,0.00,,,0.00,weatherlink.com 1.10,2013-01-21 02:53:00,
2013-01-20 22:08:00,32.8,13.0,30.00,North,353,1.0,10.0,44,0.00,,,0.00,weatherlink.com 1.10,2013-01-21 03:08:00,
2013-01-20 22:23:00,32.3,13.0,30.01,North,349,7.0,7.0,45,0.00,,,0.00,weatherlink.com 1.10,2013-01-21 03:23:00,
2013-01-20 22:38:00,32.0,13.0,30.02,NNW,330,1.0,13.0,46,0.00,,,0.00,weatherlink.com 1.10,2013-01-21 03:38:00,
2013-01-20 22:53:00,31.5,13.0,30.02,NNW,338,1.0,7.0,47,0.00,,,0.00,weatherlink.com 1.10,2013-01-21 03:53:00,
2013-01-20 23:08:00,31.0,12.0,30.03,North,11,1.0,6.0,46,0.00,,,0.00,weatherlink.com 1.10,2013-01-21 04:08:00,
2013-01-20 23:23:00,30.5,12.0,30.04,North,352,4.0,10.0,46,0.00,,,0.00,weatherlink.com 1.10,2013-01-21 04:23:00,
2013-01-20 23:38:00,30.1,11.0,30.04,NNE,17,2.0,8.0,46,0.00,,,0.00,weatherlink.com 1.10,2013-01-21 04:38:00,
2013-01-20 23:53:00,29.8,12.0,30.04,North,5,3.0,10.0,47,0.00,,,0.00,weatherlink.com 1.10,2013-01-21 04:53:00,